Time;durP1;ratioP1;P1;durP2;ratioP2;P2;SDS_P1;SDS_P2;PMS_P1;PMS_P2;Temp;Humidity;BMP_temperature;BMP_pressure;BME280_temperature;BME280_humidity;BME280_pressure;Samples;Min_cycle;Max_cycle;Signal;HPM_P1;HPM_P2
2023/06/27 00:00:15;;;;;;;15.32;3.08;;;15.40;83.20;;;;;;5061232;28;20085;-81
2023/06/27 00:02:43;;;;;;;15.38;2.60;;;15.40;83.20;;;;;;5037088;28;20071;-81
2023/06/27 00:05:10;;;;;;;16.17;3.55;;;15.40;84.10;;;;;;5058422;28;20049;-81
2023/06/27 00:07:38;;;;;;;11.70;3.03;;;15.40;84.50;;;;;;5064382;28;20071;-81
2023/06/27 00:10:05;;;;;;;9.30;2.85;;;15.30;83.40;;;;;;5034844;28;20095;-81
2023/06/27 00:12:32;;;;;;;12.98;2.80;;;15.30;84.00;;;;;;5029813;28;20103;-81
2023/06/27 00:14:59;;;;;;;16.83;3.30;;;15.30;83.60;;;;;;5050938;28;20061;-81
2023/06/27 00:17:26;;;;;;;16.10;2.60;;;15.20;83.90;;;;;;5049368;28;20045;-81
2023/06/27 00:19:57;;;;;;;9.27;2.72;;;15.20;83.90;;;;;;5048812;28;20398;-81
2023/06/27 00:22:26;;;;;;;14.75;2.60;;;15.20;84.00;;;;;;5051097;28;20110;-81
2023/06/27 00:24:54;;;;;;;11.63;2.67;;;15.10;84.30;;;;;;5047156;28;20545;-82
2023/06/27 00:27:21;;;;;;;11.45;2.83;;;15.10;84.80;;;;;;5053167;28;20639;-81
2023/06/27 00:29:48;;;;;;;5.60;2.60;;;15.10;85.00;;;;;;5051928;28;20429;-81
2023/06/27 00:32:14;;;;;;;11.55;2.75;;;15.00;84.70;;;;;;5052630;28;20469;-81
2023/06/27 00:34:41;;;;;;;18.33;2.95;;;15.00;85.10;;;;;;5032405;28;20060;-81
2023/06/27 00:37:08;;;;;;;10.70;3.20;;;15.00;86.10;;;;;;5056099;28;20093;-81
2023/06/27 00:39:35;;;;;;;8.93;2.65;;;14.90;86.20;;;;;;5033443;28;20052;-81
2023/06/27 00:42:02;;;;;;;12.60;3.28;;;14.90;85.50;;;;;;5034090;28;20148;-81
2023/06/27 00:44:29;;;;;;;13.40;3.50;;;14.90;86.00;;;;;;5060266;28;20795;-81
2023/06/27 00:46:56;;;;;;;14.52;3.65;;;14.90;86.60;;;;;;5044235;28;20120;-81
2023/06/27 00:49:23;;;;;;;13.27;3.00;;;14.80;85.90;;;;;;5050500;28;20045;-81
2023/06/27 00:51:53;;;;;;;11.50;2.55;;;14.70;85.90;;;;;;5054223;28;20132;-81
2023/06/27 00:54:21;;;;;;;12.80;3.10;;;14.70;86.40;;;;;;5061036;28;20555;-80
2023/06/27 00:56:55;;;;;;;16.30;3.50;;;14.70;87.60;;;;;;5050555;28;20413;-80
2023/06/27 00:59:22;;;;;;;10.77;3.55;;;14.70;88.60;;;;;;5052418;28;20056;-81
2023/06/27 01:01:49;;;;;;;8.40;3.45;;;14.60;88.10;;;;;;5059029;28;20064;-81
2023/06/27 01:04:16;;;;;;;13.65;3.13;;;14.60;88.40;;;;;;5043595;28;20136;-81
2023/06/27 01:07:00;;;;;;;10.52;2.95;;;14.60;88.20;;;;;;5062265;28;20048;-81
2023/06/27 01:09:41;;;;;;;9.77;3.38;;;14.50;88.40;;;;;;5050733;28;20135;-81
2023/06/27 01:12:29;;;;;;;13.77;4.18;;;14.50;88.70;;;;;;5057536;28;20104;-83
2023/06/27 01:14:59;;;;;;;10.98;3.17;;;14.50;88.40;;;;;;5050721;28;20686;-80
2023/06/27 01:17:28;;;;;;;15.27;3.80;;;14.40;87.90;;;;;;5051127;28;20564;-80
2023/06/27 01:19:58;;;;;;;15.82;3.13;;;14.40;88.20;;;;;;5028006;28;20139;-80
2023/06/27 01:22:39;;;;;;;15.95;3.13;;;14.40;88.40;;;;;;5042253;28;20084;-80
2023/06/27 01:25:07;;;;;;;17.27;3.67;;;14.30;88.20;;;;;;5028331;28;20116;-80
2023/06/27 01:27:34;;;;;;;15.80;3.92;;;14.30;88.90;;;;;;5040819;28;20092;-80
2023/06/27 01:30:01;;;;;;;11.73;3.10;;;14.30;89.70;;;;;;5058942;28;20094;-80
2023/06/27 01:32:36;;;;;;;11.07;3.60;;;14.30;89.60;;;;;;5055079;28;20052;-80
2023/06/27 01:35:15;;;;;;;12.98;3.03;;;14.30;88.90;;;;;;5033914;28;20057;-80
2023/06/27 01:37:51;;;;;;;13.57;3.67;;;14.30;90.00;;;;;;5026944;28;20059;-81
2023/06/27 01:40:20;;;;;;;18.90;3.75;;;14.20;89.40;;;;;;5044433;28;20245;-80
2023/06/27 01:42:53;;;;;;;13.80;4.00;;;14.20;89.80;;;;;;5035015;28;20052;-80
2023/06/27 01:45:22;;;;;;;10.65;3.08;;;14.20;89.90;;;;;;5048137;28;20045;-75
2023/06/27 01:47:50;;;;;;;7.15;3.60;;;14.10;89.60;;;;;;5051926;28;20119;-75
2023/06/27 01:50:18;;;;;;;16.63;3.92;;;14.10;90.10;;;;;;5044737;28;20114;-75
2023/06/27 01:52:45;;;;;;;10.15;3.58;;;14.10;90.50;;;;;;5029191;28;20119;-75
2023/06/27 01:55:12;;;;;;;15.90;4.15;;;14.20;90.10;;;;;;5052760;28;20103;-81
2023/06/27 01:57:39;;;;;;;8.63;3.08;;;14.20;91.30;;;;;;5048066;28;20049;-81
2023/06/27 02:00:07;;;;;;;14.27;3.97;;;14.10;90.30;;;;;;5050187;28;20095;-81
2023/06/27 02:02:34;;;;;;;14.38;4.18;;;14.10;90.70;;;;;;5050104;28;20085;-81
2023/06/27 02:05:01;;;;;;;13.63;3.40;;;14.10;90.30;;;;;;5050652;28;20052;-82
2023/06/27 02:07:28;;;;;;;16.90;3.70;;;14.10;90.20;;;;;;5049941;28;20081;-81
2023/06/27 02:09:55;;;;;;;13.35;3.85;;;14.10;90.70;;;;;;5033629;28;20059;-81
2023/06/27 02:12:22;;;;;;;8.95;3.75;;;14.10;90.20;;;;;;5052242;28;20048;-80
2023/06/27 02:14:48;;;;;;;13.55;4.30;;;14.10;90.40;;;;;;5050766;28;20048;-82
2023/06/27 02:17:15;;;;;;;16.83;4.20;;;14.10;90.60;;;;;;5052808;28;20127;-81
2023/06/27 02:19:42;;;;;;;14.40;4.60;;;14.10;91.20;;;;;;5049465;28;20088;-81
2023/06/27 02:22:09;;;;;;;14.80;4.18;;;14.00;91.20;;;;;;5032498;28;20127;-81
2023/06/27 02:24:36;;;;;;;12.20;4.03;;;14.00;91.00;;;;;;5050400;28;20499;-82
2023/06/27 02:27:03;;;;;;;11.07;3.97;;;14.00;90.80;;;;;;5046575;28;20049;-80
2023/06/27 02:29:30;;;;;;;17.27;4.15;;;14.00;91.30;;;;;;5031203;28;20139;-80
2023/06/27 02:31:57;;;;;;;9.82;3.55;;;14.00;91.00;;;;;;5035058;28;20088;-80
2023/06/27 02:34:24;;;;;;;18.50;4.22;;;14.00;91.50;;;;;;5033506;28;20136;-80
2023/06/27 02:36:51;;;;;;;15.63;4.40;;;14.00;92.10;;;;;;5031053;28;20052;-80
2023/06/27 02:39:18;;;;;;;14.65;4.30;;;14.00;91.40;;;;;;5035130;28;20128;-80
2023/06/27 02:41:44;;;;;;;15.20;3.90;;;14.00;91.60;;;;;;5053911;28;20122;-80
2023/06/27 02:44:11;;;;;;;14.73;4.15;;;14.00;91.40;;;;;;5033751;28;20040;-75
2023/06/27 02:46:38;;;;;;;16.92;4.57;;;14.00;91.20;;;;;;5047878;28;20127;-75
2023/06/27 02:49:05;;;;;;;10.45;3.83;;;14.00;91.60;;;;;;5052191;28;20107;-75
2023/06/27 02:51:32;;;;;;;19.70;4.60;;;14.00;91.90;;;;;;5045912;28;20045;-75
2023/06/27 02:53:59;;;;;;;23.40;4.13;;;14.00;91.80;;;;;;5042688;28;20087;-75
2023/06/27 02:56:26;;;;;;;21.83;3.88;;;14.00;91.80;;;;;;5036458;28;20048;-75
2023/06/27 02:58:52;;;;;;;18.58;4.00;;;14.00;91.30;;;;;;5043435;28;20151;-75
2023/06/27 03:01:19;;;;;;;23.05;4.22;;;14.00;91.30;;;;;;5027726;28;20081;-75
2023/06/27 03:03:46;;;;;;;15.02;4.25;;;14.00;92.40;;;;;;5044997;28;20669;-75
2023/06/27 03:06:14;;;;;;;11.32;3.60;;;13.90;91.60;;;;;;5053669;28;20060;-75
2023/06/27 03:08:40;;;;;;;11.93;3.88;;;13.90;91.60;;;;;;5049114;28;20061;-75
2023/06/27 03:11:07;;;;;;;14.50;4.32;;;13.90;92.70;;;;;;5024915;28;20144;-75
2023/06/27 03:13:34;;;;;;;18.65;4.18;;;13.90;92.30;;;;;;5051486;28;20045;-75
2023/06/27 03:16:01;;;;;;;18.85;4.80;;;13.90;91.40;;;;;;5056304;28;20132;-75
2023/06/27 03:18:28;;;;;;;20.27;3.78;;;13.90;91.90;;;;;;5052954;28;20544;-75
2023/06/27 03:20:55;;;;;;;15.00;3.92;;;13.90;92.10;;;;;;5053489;28;20049;-75
2023/06/27 03:23:22;;;;;;;10.98;4.28;;;13.90;91.70;;;;;;5044825;28;20115;-74
2023/06/27 03:25:49;;;;;;;15.90;4.60;;;13.90;91.10;;;;;;5049648;28;20539;-75
2023/06/27 03:28:15;;;;;;;22.73;3.95;;;13.90;91.10;;;;;;5056817;28;20067;-80
2023/06/27 03:30:43;;;;;;;17.83;4.47;;;13.90;91.00;;;;;;5059114;28;20056;-79
2023/06/27 03:33:10;;;;;;;16.08;4.10;;;13.90;91.50;;;;;;5060325;28;20062;-80
2023/06/27 03:35:38;;;;;;;17.30;3.83;;;13.90;91.30;;;;;;5033866;28;20056;-80
2023/06/27 03:38:05;;;;;;;19.63;4.20;;;13.90;91.00;;;;;;5055635;28;20082;-80
2023/06/27 03:40:32;;;;;;;17.02;3.97;;;13.90;91.00;;;;;;5059539;28;20052;-80
2023/06/27 03:43:00;;;;;;;21.65;4.30;;;13.90;91.10;;;;;;5045736;28;20139;-80
2023/06/27 03:45:28;;;;;;;13.50;3.63;;;13.90;91.00;;;;;;5050193;28;20045;-81
2023/06/27 03:47:55;;;;;;;15.80;3.83;;;13.90;90.60;;;;;;5051258;28;20064;-81
2023/06/27 03:50:22;;;;;;;11.88;4.40;;;13.90;91.20;;;;;;5056282;28;20107;-81
2023/06/27 03:52:49;;;;;;;14.40;3.90;;;13.90;91.20;;;;;;5056394;28;20078;-81
2023/06/27 03:55:16;;;;;;;12.88;4.03;;;13.90;91.20;;;;;;5035146;28;20160;-81
2023/06/27 03:57:42;;;;;;;12.65;3.72;;;14.00;91.20;;;;;;5034675;28;20051;-81
2023/06/27 04:00:10;;;;;;;12.80;3.90;;;14.00;90.90;;;;;;5040417;28;20049;-81
2023/06/27 04:02:37;;;;;;;16.35;4.07;;;14.00;90.50;;;;;;5035087;28;20049;-81
2023/06/27 04:05:04;;;;;;;21.58;4.35;;;13.90;90.70;;;;;;5035042;28;20049;-81
2023/06/27 04:07:31;;;;;;;23.88;4.28;;;14.00;90.90;;;;;;5052027;28;20056;-81
2023/06/27 04:09:58;;;;;;;24.30;4.10;;;14.00;91.10;;;;;;5041832;28;20112;-82
2023/06/27 04:12:25;;;;;;;11.00;3.33;;;14.00;90.90;;;;;;5053269;28;20044;-81
2023/06/27 04:14:52;;;;;;;13.27;3.75;;;14.00;91.10;;;;;;5035410;28;20045;-81
2023/06/27 04:17:19;;;;;;;23.20;4.95;;;14.10;91.10;;;;;;5052637;28;20087;-81
2023/06/27 04:19:46;;;;;;;18.48;3.97;;;14.10;91.30;;;;;;5037871;28;20048;-84
2023/06/27 04:22:13;;;;;;;15.80;4.32;;;14.10;91.60;;;;;;5065799;28;20139;-84
2023/06/27 04:24:39;;;;;;;13.00;3.83;;;14.10;90.90;;;;;;5068533;28;20595;-84
2023/06/27 04:27:10;;;;;;;19.42;3.97;;;14.20;90.40;;;;;;5046260;28;20095;-84
2023/06/27 04:29:37;;;;;;;12.65;4.13;;;14.20;90.80;;;;;;5064246;28;20555;-84
2023/06/27 04:32:04;;;;;;;12.00;4.03;;;14.20;90.80;;;;;;5049593;28;20366;-85
2023/06/27 04:34:35;;;;;;;19.15;4.53;;;14.30;90.70;;;;;;5068865;28;20098;-85
2023/06/27 04:37:06;;;;;;;17.75;4.25;;;14.30;90.50;;;;;;5042064;28;20048;-85
2023/06/27 04:39:32;;;;;;;17.00;4.05;;;14.30;90.00;;;;;;5061619;28;20514;-85
2023/06/27 04:41:59;;;;;;;14.85;3.55;;;14.40;90.90;;;;;;5077698;23;20838;-76
2023/06/27 04:44:26;;;;;;;18.17;4.30;;;14.40;90.70;;;;;;5067161;28;20056;-76
2023/06/27 04:46:54;;;;;;;24.60;4.40;;;14.40;89.70;;;;;;5077930;28;20121;-75
2023/06/27 04:49:21;;;;;;;24.35;5.00;;;14.40;89.80;;;;;;5071404;28;20054;-75
2023/06/27 04:51:47;;;;;;;11.80;3.83;;;14.50;89.60;;;;;;5052598;28;20505;-74
2023/06/27 04:54:14;;;;;;;14.73;3.95;;;14.50;89.80;;;;;;5060510;28;20048;-75
2023/06/27 04:56:41;;;;;;;12.82;3.58;;;14.50;89.20;;;;;;5069774;28;20177;-73
2023/06/27 04:59:08;;;;;;;18.55;4.18;;;14.60;89.40;;;;;;5065289;28;20131;-78
2023/06/27 05:01:35;;;;;;;15.38;3.42;;;14.60;89.20;;;;;;5065725;28;20127;-77
2023/06/27 05:04:04;;;;;;;12.52;3.90;;;14.70;89.70;;;;;;5045520;28;20056;-76
2023/06/27 05:06:33;;;;;;;21.00;3.45;;;14.70;89.40;;;;;;5073544;28;20135;-78
2023/06/27 05:09:01;;;;;;;13.90;3.15;;;14.80;88.60;;;;;;5055249;28;20476;-79
2023/06/27 05:11:28;;;;;;;13.88;3.78;;;14.80;88.00;;;;;;5059123;28;20084;-78
2023/06/27 05:13:55;;;;;;;15.38;3.95;;;14.90;87.60;;;;;;5042322;28;20048;-79
2023/06/27 05:16:23;;;;;;;14.82;3.17;;;14.90;86.40;;;;;;5054752;28;20045;-79
2023/06/27 05:18:49;;;;;;;18.73;3.97;;;14.90;86.50;;;;;;5066259;28;20183;-83
2023/06/27 05:21:16;;;;;;;15.70;3.33;;;15.00;86.50;;;;;;5045500;28;20122;-80
2023/06/27 05:23:43;;;;;;;11.45;3.40;;;15.00;86.80;;;;;;5051009;28;20147;-77
2023/06/27 05:26:10;;;;;;;8.60;2.85;;;15.10;85.40;;;;;;5066923;28;20052;-79
2023/06/27 05:28:37;;;;;;;14.10;3.13;;;15.10;85.50;;;;;;5075505;28;20040;-77
2023/06/27 05:31:04;;;;;;;19.23;3.42;;;15.10;85.50;;;;;;5090463;28;20045;-78
2023/06/27 05:33:31;;;;;;;16.92;3.30;;;15.30;86.10;;;;;;5056937;28;20060;-79
2023/06/27 05:35:58;;;;;;;17.95;3.40;;;15.30;85.30;;;;;;5080011;28;20044;-77
2023/06/27 05:38:25;;;;;;;11.30;3.15;;;15.40;85.90;;;;;;5067050;28;20068;-77
2023/06/27 05:40:52;;;;;;;11.63;3.20;;;15.40;85.50;;;;;;5075935;28;20888;-79
2023/06/27 05:43:19;;;;;;;13.27;3.13;;;15.50;85.40;;;;;;5073015;28;20063;-84
2023/06/27 05:45:46;;;;;;;19.80;3.00;;;15.50;85.00;;;;;;5074909;28;20163;-78
2023/06/27 05:48:12;;;;;;;17.15;2.50;;;15.60;83.80;;;;;;5067684;28;20588;-79
2023/06/27 05:50:39;;;;;;;12.73;2.67;;;15.60;83.60;;;;;;5043495;28;20504;-78
2023/06/27 05:53:06;;;;;;;14.02;2.13;;;15.60;84.10;;;;;;5068823;28;20118;-79
2023/06/27 05:55:33;;;;;;;16.73;3.05;;;15.70;84.00;;;;;;5051104;28;20105;-78
2023/06/27 05:58:00;;;;;;;12.55;2.30;;;15.80;83.10;;;;;;5076274;28;20086;-79
2023/06/27 06:00:27;;;;;;;17.13;2.45;;;15.80;83.50;;;;;;5058758;28;20048;-79
2023/06/27 06:02:54;;;;;;;10.00;2.70;;;15.90;82.60;;;;;;5049830;28;20091;-79
2023/06/27 06:05:21;;;;;;;27.58;2.80;;;16.00;81.40;;;;;;5069617;28;20048;-80
2023/06/27 06:07:48;;;;;;;15.02;2.53;;;16.00;81.80;;;;;;5057702;28;20444;-80
2023/06/27 06:10:15;;;;;;;6.75;2.20;;;16.10;81.60;;;;;;5052870;28;20052;-81
2023/06/27 06:12:43;;;;;;;11.65;2.38;;;16.30;82.00;;;;;;5059682;28;20064;-81
2023/06/27 06:15:10;;;;;;;12.27;2.30;;;16.40;82.30;;;;;;5052579;28;20049;-79
2023/06/27 06:17:37;;;;;;;11.05;2.25;;;16.60;81.00;;;;;;5052177;28;20050;-82
2023/06/27 06:20:09;;;;;;;17.23;2.97;;;16.80;79.10;;;;;;5058572;28;20048;-82
2023/06/27 06:22:37;;;;;;;19.95;2.38;;;16.90;79.50;;;;;;5053909;28;20119;-82
2023/06/27 06:25:05;;;;;;;16.92;1.90;;;16.90;79.50;;;;;;5058576;28;20070;-82
2023/06/27 06:27:33;;;;;;;6.50;1.67;;;17.00;78.00;;;;;;5048978;28;20049;-82
2023/06/27 06:30:00;;;;;;;9.43;1.83;;;17.30;78.30;;;;;;5072389;28;20053;-82
2023/06/27 06:32:27;;;;;;;7.68;1.90;;;17.50;77.30;;;;;;5083794;28;20052;-82
2023/06/27 06:34:54;;;;;;;14.85;1.77;;;17.60;75.80;;;;;;5074359;28;20612;-82
2023/06/27 06:37:22;;;;;;;10.00;2.22;;;17.60;76.50;;;;;;5052449;28;20120;-82
2023/06/27 06:39:49;;;;;;;13.70;2.08;;;17.70;76.00;;;;;;5068978;28;20072;-82
2023/06/27 06:42:16;;;;;;;16.23;3.65;;;17.60;75.50;;;;;;5055151;28;20175;-82
2023/06/27 06:44:44;;;;;;;9.65;1.77;;;17.70;75.60;;;;;;5052955;28;20053;-82
2023/06/27 06:47:11;;;;;;;8.98;2.20;;;17.80;75.00;;;;;;5056575;28;20052;-82
2023/06/27 06:49:38;;;;;;;15.10;1.98;;;18.10;74.70;;;;;;5033983;28;20084;-82
2023/06/27 06:52:05;;;;;;;12.27;2.10;;;18.10;74.10;;;;;;5067377;28;20052;-81
2023/06/27 06:54:32;;;;;;;9.25;1.70;;;18.00;73.30;;;;;;5070684;28;20056;-82
2023/06/27 06:56:59;;;;;;;8.80;2.20;;;18.20;72.10;;;;;;5070734;28;20110;-82
2023/06/27 06:59:26;;;;;;;6.90;1.40;;;18.40;71.80;;;;;;5070640;28;20512;-81
2023/06/27 07:01:53;;;;;;;15.27;2.17;;;18.60;72.20;;;;;;5055419;28;20068;-81
2023/06/27 07:04:20;;;;;;;8.77;1.45;;;19.00;72.40;;;;;;5076474;28;20501;-83
2023/06/27 07:06:48;;;;;;;9.60;1.77;;;19.30;70.40;;;;;;5050444;28;20053;-81
2023/06/27 07:09:15;;;;;;;9.05;1.70;;;19.30;70.00;;;;;;5047749;28;20076;-83
2023/06/27 07:11:42;;;;;;;14.15;2.30;;;19.40;69.50;;;;;;5060841;28;20052;-83
2023/06/27 07:14:09;;;;;;;9.20;1.80;;;19.30;69.10;;;;;;5070565;28;20091;-83
2023/06/27 07:16:36;;;;;;;7.35;1.42;;;19.20;68.10;;;;;;5057599;28;20161;-82
2023/06/27 07:19:03;;;;;;;10.88;1.85;;;19.10;69.20;;;;;;5081709;28;20119;-83
2023/06/27 07:21:30;;;;;;;8.05;1.65;;;19.40;69.00;;;;;;5060286;28;20366;-83
2023/06/27 07:23:57;;;;;;;15.70;2.00;;;19.60;68.60;;;;;;5050850;28;20047;-83
2023/06/27 07:26:24;;;;;;;9.63;1.50;;;19.80;66.70;;;;;;5073521;28;20123;-83
2023/06/27 07:28:51;;;;;;;12.25;1.50;;;19.80;67.40;;;;;;5078300;28;20142;-82
2023/06/27 07:31:17;;;;;;;4.30;1.42;;;20.00;67.40;;;;;;5054590;28;20102;-82
2023/06/27 07:33:44;;;;;;;15.25;1.58;;;20.40;67.10;;;;;;5073217;28;20401;-82
2023/06/27 07:36:11;;;;;;;7.40;1.65;;;20.50;67.50;;;;;;5072289;28;20041;-82
2023/06/27 07:38:39;;;;;;;9.48;1.48;;;20.60;64.90;;;;;;5061636;28;20874;-82
2023/06/27 07:41:06;;;;;;;11.70;1.63;;;20.90;63.20;;;;;;5052561;28;20052;-82
2023/06/27 07:43:32;;;;;;;5.20;1.35;;;20.80;63.30;;;;;;5052186;28;20135;-83
2023/06/27 07:45:59;;;;;;;5.95;1.33;;;21.00;61.20;;;;;;5052598;28;20107;-83
2023/06/27 07:48:26;;;;;;;11.60;1.73;;;20.90;60.50;;;;;;5084437;28;20102;-82
2023/06/27 07:50:53;;;;;;;8.88;1.48;;;20.60;59.80;;;;;;5052445;28;20087;-82
2023/06/27 07:53:20;;;;;;;11.75;1.52;;;20.40;62.40;;;;;;5070773;28;20052;-84
2023/06/27 07:55:47;;;;;;;9.45;1.35;;;20.70;63.40;;;;;;5053335;28;20127;-84
2023/06/27 07:58:14;;;;;;;5.82;1.42;;;21.00;61.20;;;;;;5067308;28;20705;-84
2023/06/27 08:00:41;;;;;;;3.35;1.63;;;21.10;61.30;;;;;;5078060;28;20564;-82
2023/06/27 08:03:08;;;;;;;5.50;1.10;;;20.90;61.20;;;;;;5072748;28;20044;-82
2023/06/27 08:05:38;;;;;;;8.98;1.40;;;20.70;59.90;;;;;;5078487;28;20128;-84
2023/06/27 08:08:07;;;;;;;7.38;1.17;;;20.60;59.80;;;;;;5079311;28;20123;-87
2023/06/27 08:10:34;;;;;;;5.53;1.10;;;20.80;60.70;;;;;;5077673;28;21255;-87
2023/06/27 08:13:01;;;;;;;11.45;1.35;;;21.10;58.20;;;;;;5059836;28;20136;-88
2023/06/27 08:15:28;;;;;;;6.00;1.20;;;21.50;58.70;;;;;;5073558;28;20124;-87
2023/06/27 08:17:55;;;;;;;7.25;1.40;;;21.70;57.50;;;;;;5085576;28;20050;-87
2023/06/27 08:20:22;;;;;;;8.32;1.23;;;21.70;58.60;;;;;;5078323;28;20044;-88
2023/06/27 08:22:49;;;;;;;7.95;1.15;;;21.60;60.50;;;;;;5055719;28;20040;-87
2023/06/27 08:25:16;;;;;;;7.18;1.73;;;21.40;60.30;;;;;;5058031;28;20083;-88
2023/06/27 08:27:43;;;;;;;6.72;1.50;;;21.70;60.70;;;;;;5056212;28;20859;-87
2023/06/27 08:30:10;;;;;;;5.25;1.00;;;21.90;57.00;;;;;;5055644;28;20052;-86
2023/06/27 08:32:37;;;;;;;4.97;1.00;;;22.20;55.90;;;;;;5069131;28;20055;-87
2023/06/27 08:35:06;;;;;;;7.25;1.13;;;22.40;54.70;;;;;;5085051;28;20049;-87
2023/06/27 08:37:33;;;;;;;3.95;1.20;;;22.60;56.80;;;;;;5055543;28;20044;-86
2023/06/27 08:40:00;;;;;;;7.55;1.38;;;22.90;54.90;;;;;;5061812;28;20123;-85
2023/06/27 08:42:31;;;;;;;7.70;1.50;;;22.90;55.40;;;;;;5077280;28;20123;-84
2023/06/27 08:44:59;;;;;;;5.35;1.20;;;22.70;55.00;;;;;;5071232;28;20070;-85
2023/06/27 08:47:29;;;;;;;7.05;1.27;;;22.60;55.90;;;;;;5063644;28;20570;-84
2023/06/27 08:50:03;;;;;;;3.58;1.05;;;22.50;54.30;;;;;;5060612;28;20048;-83
2023/06/27 08:52:37;;;;;;;9.55;1.65;;;22.80;54.80;;;;;;5063069;28;20059;-81
2023/06/27 08:55:06;;;;;;;2.65;1.27;;;23.00;56.20;;;;;;5064488;28;20048;-84
2023/06/27 08:57:36;;;;;;;6.57;1.30;;;23.30;53.50;;;;;;5071910;28;20098;-77
2023/06/27 09:00:11;;;;;;;4.80;0.80;;;23.30;52.90;;;;;;5067753;28;20473;-77
2023/06/27 09:02:40;;;;;;;8.48;1.23;;;23.20;53.80;;;;;;5066993;28;20128;-77
2023/06/27 09:05:08;;;;;;;4.68;1.17;;;23.00;51.90;;;;;;5059588;28;20056;-78
2023/06/27 09:07:36;;;;;;;10.75;0.90;;;22.50;56.30;;;;;;5071896;28;20489;-77
2023/06/27 09:10:03;;;;;;;7.43;1.38;;;22.50;57.30;;;;;;5056082;28;20131;-78
2023/06/27 09:12:32;;;;;;;5.68;0.90;;;22.90;59.20;;;;;;5053860;28;20088;-77
2023/06/27 09:14:59;;;;;;;6.70;1.23;;;23.40;60.60;;;;;;5048416;28;20048;-77
2023/06/27 09:17:26;;;;;;;9.00;1.50;;;23.80;57.00;;;;;;5078475;28;20076;-77
2023/06/27 09:19:53;;;;;;;4.30;0.90;;;23.90;57.80;;;;;;5077436;28;20052;-78
2023/06/27 09:22:23;;;;;;;2.67;0.90;;;23.80;55.40;;;;;;5076820;28;20040;-78
2023/06/27 09:25:08;;;;;;;5.13;1.27;;;23.60;55.00;;;;;;5079016;28;20076;-78
2023/06/27 09:27:35;;;;;;;4.63;1.10;;;23.30;53.70;;;;;;5073128;28;20476;-78
2023/06/27 09:30:03;;;;;;;11.32;1.48;;;23.00;56.00;;;;;;5075370;28;20056;-78
2023/06/27 09:32:30;;;;;;;8.50;1.20;;;22.80;55.40;;;;;;5051659;28;20165;-78
2023/06/27 09:35:03;;;;;;;6.50;1.05;;;22.50;55.60;;;;;;5067674;28;20052;-78
2023/06/27 09:37:31;;;;;;;8.25;1.13;;;22.30;55.90;;;;;;5069260;28;20106;-78
2023/06/27 09:40:17;;;;;;;6.35;1.25;;;22.60;55.80;;;;;;5043942;28;20079;-80
2023/06/27 09:42:55;;;;;;;6.40;1.00;;;23.00;54.20;;;;;;5055943;28;20131;-80
2023/06/27 09:45:24;;;;;;;5.75;0.73;;;23.40;51.70;;;;;;5076576;28;20945;-80
2023/06/27 09:47:51;;;;;;;3.85;0.95;;;23.50;50.20;;;;;;5058584;28;20114;-79
2023/06/27 09:50:29;;;;;;;2.53;0.75;;;22.80;50.50;;;;;;5052501;28;20103;-77
2023/06/27 09:53:00;;;;;;;4.97;1.05;;;22.90;53.00;;;;;;5065577;28;20048;-78
2023/06/27 09:55:28;;;;;;;4.95;0.85;;;23.50;52.00;;;;;;5048216;28;20083;-78
2023/06/27 09:57:57;;;;;;;2.85;1.10;;;23.90;52.40;;;;;;5067736;28;20142;-78
2023/06/27 10:00:28;;;;;;;6.90;0.98;;;24.10;52.10;;;;;;5073350;28;20068;-78
2023/06/27 10:02:56;;;;;;;5.47;0.80;;;24.30;50.30;;;;;;5079062;28;20051;-78
2023/06/27 10:05:23;;;;;;;4.25;0.95;;;24.30;48.60;;;;;;5072512;28;20079;-78
2023/06/27 10:07:52;;;;;;;3.88;0.85;;;24.10;48.10;;;;;;5062455;28;20064;-77
2023/06/27 10:10:24;;;;;;;4.85;1.50;;;23.90;51.00;;;;;;5054215;28;20129;-78
2023/06/27 10:12:52;;;;;;;12.63;1.27;;;24.10;49.50;;;;;;5069201;28;20058;-78
2023/06/27 10:15:19;;;;;;;4.50;0.98;;;24.50;48.70;;;;;;5058383;28;20044;-79
2023/06/27 10:17:47;;;;;;;8.05;1.05;;;24.40;48.50;;;;;;5053403;28;20083;-78
2023/06/27 10:20:14;;;;;;;6.90;1.23;;;24.50;49.80;;;;;;5080026;28;20048;-78
2023/06/27 10:22:44;;;;;;;3.30;0.90;;;24.50;50.30;;;;;;5073729;28;20094;-78
2023/06/27 10:25:11;;;;;;;6.15;0.85;;;24.50;48.50;;;;;;5079415;28;20048;-78
2023/06/27 10:27:42;;;;;;;2.00;0.60;;;24.80;49.40;;;;;;5082858;28;20067;-78
2023/06/27 10:30:13;;;;;;;6.85;0.95;;;24.80;49.20;;;;;;5052195;28;20044;-78
2023/06/27 10:32:44;;;;;;;6.53;1.02;;;24.30;48.70;;;;;;5078778;28;20052;-78
2023/06/27 10:35:27;;;;;;;5.05;0.90;;;23.90;50.40;;;;;;5043881;28;20052;-77
2023/06/27 10:38:15;;;;;;;1.52;0.68;;;23.60;49.60;;;;;;5053325;28;20811;-77
2023/06/27 10:41:02;;;;;;;4.82;0.63;;;24.00;52.10;;;;;;5080065;28;20059;-77
2023/06/27 10:43:47;;;;;;;4.75;0.80;;;24.30;50.10;;;;;;5053323;28;20126;-77
2023/06/27 10:46:22;;;;;;;7.70;0.80;;;24.40;51.20;;;;;;5078947;28;20091;-78
2023/06/27 10:49:03;;;;;;;3.97;0.90;;;24.20;49.00;;;;;;5043679;28;20107;-78
2023/06/27 10:51:34;;;;;;;4.82;1.08;;;23.80;49.80;;;;;;5075569;28;20048;-77
2023/06/27 10:54:07;;;;;;;2.40;0.88;;;23.60;53.40;;;;;;5044553;28;20076;-77
2023/06/27 10:56:39;;;;;;;5.50;0.98;;;23.70;50.70;;;;;;5047396;28;20051;-77
2023/06/27 10:59:15;;;;;;;5.55;1.10;;;23.40;51.90;;;;;;5074943;28;20046;-77
2023/06/27 11:02:04;;;;;;;4.75;1.30;;;23.30;52.30;;;;;;5054099;28;20040;-77
2023/06/27 11:04:44;;;;;;;7.28;1.38;;;23.10;52.20;;;;;;5073671;28;20052;-76
2023/06/27 11:07:20;;;;;;;6.88;1.00;;;22.60;58.20;;;;;;5052650;28;20044;-77
2023/06/27 11:09:52;;;;;;;;;;;21.80;59.60;;;;;;5056449;28;20091;-77
2023/06/27 11:12:21;;;;;;;4.55;0.70;;;21.20;63.90;;;;;;5053689;28;19928;-77
2023/06/27 11:14:53;;;;;;;7.05;0.70;;;20.30;61.60;;;;;;5054690;28;20587;-77
2023/06/27 11:17:23;;;;;;;18.55;1.77;;;19.40;59.30;;;;;;5058308;28;20059;-77
2023/06/27 11:19:51;;;;;;;2.97;1.00;;;18.90;59.70;;;;;;5054725;28;20483;-77
2023/06/27 11:22:18;;;;;;;1.48;0.60;;;18.50;61.30;;;;;;5052123;28;20049;-77
2023/06/27 11:24:46;;;;;;;3.30;0.70;;;18.10;62.90;;;;;;5072677;28;20156;-77
2023/06/27 11:27:13;;;;;;;3.22;0.60;;;18.00;62.40;;;;;;5078899;28;20082;-77
2023/06/27 11:29:41;;;;;;;2.00;0.40;;;17.70;62.40;;;;;;5060671;28;20052;-77
2023/06/27 11:32:09;;;;;;;1.13;0.50;;;17.50;64.00;;;;;;5058366;28;20149;-77
2023/06/27 11:34:41;;;;;;;7.30;1.38;;;17.40;65.00;;;;;;5058661;28;20052;-77
2023/06/27 11:37:10;;;;;;;2.05;0.75;;;17.30;65.90;;;;;;5060771;28;20489;-77
2023/06/27 11:39:37;;;;;;;10.73;1.00;;;17.20;67.50;;;;;;5057501;28;20155;-77
2023/06/27 11:42:05;;;;;;;3.35;1.00;;;17.00;72.30;;;;;;5080563;28;20057;-77
2023/06/27 11:44:32;;;;;;;2.47;0.60;;;16.90;74.30;;;;;;5079778;28;20055;-77
2023/06/27 11:47:00;;;;;;;2.95;0.80;;;16.80;75.60;;;;;;5066549;28;20143;-77
2023/06/27 11:49:27;;;;;;;3.25;0.80;;;16.60;76.50;;;;;;5074374;28;20048;-76
2023/06/27 11:51:58;;;;;;;2.47;1.17;;;16.40;76.70;;;;;;5080311;28;20071;-77
2023/06/27 11:54:25;;;;;;;2.33;0.82;;;16.20;80.00;;;;;;5085822;28;20148;-77
2023/06/27 11:56:57;;;;;;;9.73;1.15;;;15.90;80.00;;;;;;5078635;28;20060;-77
2023/06/27 11:59:32;;;;;;;6.05;1.13;;;15.70;80.00;;;;;;5082765;28;20452;-78
2023/06/27 12:01:59;;;;;;;2.93;1.50;;;15.50;84.20;;;;;;5067359;28;20048;-80
2023/06/27 12:04:25;;;;;;;4.43;1.13;;;15.40;83.40;;;;;;5063040;28;20048;-78
2023/06/27 12:06:52;;;;;;;5.13;1.92;;;15.30;84.50;;;;;;5052445;28;20053;-78
2023/06/27 12:09:24;;;;;;;4.80;1.30;;;15.20;86.30;;;;;;5056157;28;20123;-78
2023/06/27 12:11:58;;;;;;;7.40;1.70;;;15.20;88.00;;;;;;5057863;28;20087;-76
2023/06/27 12:14:26;;;;;;;5.07;1.30;;;15.10;86.70;;;;;;5050113;28;20048;-78
2023/06/27 12:16:53;;;;;;;6.28;1.50;;;15.20;89.70;;;;;;5053778;28;20040;-77
2023/06/27 12:19:21;;;;;;;5.45;1.48;;;15.20;90.00;;;;;;5051897;28;20044;-77
2023/06/27 12:21:49;;;;;;;5.93;1.33;;;15.20;88.50;;;;;;5056147;28;20067;-77
2023/06/27 12:24:16;;;;;;;5.50;1.30;;;15.50;90.70;;;;;;5054620;28;20132;-78
2023/06/27 12:26:45;;;;;;;6.35;1.90;;;16.00;92.30;;;;;;5071378;28;20076;-79
2023/06/27 12:29:12;;;;;;;3.35;1.30;;;16.40;89.20;;;;;;5057614;28;20052;-78
2023/06/27 12:31:39;;;;;;;5.47;1.60;;;16.70;85.00;;;;;;5053573;28;20041;-79
2023/06/27 12:34:07;;;;;;;8.07;1.60;;;16.80;86.20;;;;;;5064670;28;20047;-79
2023/06/27 12:36:34;;;;;;;4.63;1.33;;;16.90;83.10;;;;;;5054655;28;20111;-79
2023/06/27 12:39:01;;;;;;;8.70;1.38;;;16.90;82.30;;;;;;5055314;28;20511;-79
2023/06/27 12:41:28;;;;;;;8.68;1.25;;;16.90;82.10;;;;;;5055696;28;20106;-79
2023/06/27 12:43:56;;;;;;;5.18;1.17;;;16.90;81.70;;;;;;5058421;28;20066;-77
2023/06/27 12:46:23;;;;;;;7.03;1.45;;;17.00;83.40;;;;;;5055730;28;20049;-78